Time;durP1;ratioP1;P1;durP2;ratioP2;P2;SDS_P1;SDS_P2;PMS_P1;PMS_P2;Temp;Humidity;BMP_temperature;BMP_pressure;BME280_temperature;BME280_humidity;BME280_pressure;Samples;Min_cycle;Max_cycle;Signal;HPM_P1;HPM_P2
2022/12/23 00:03:30;;;;;;;20.20;7.13;;;;;10.00;99886.00;;;;9785936;30;20213;-79
2022/12/23 00:08:33;;;;;;;21.73;7.77;;;;;10.10;99892.00;;;;9812421;30;20263;-78
2022/12/23 00:18:56;;;;;;;14.47;6.50;;;;;10.20;99918.00;;;;9824873;30;20244;-80
2022/12/23 00:23:58;;;;;;;16.57;5.60;;;;;10.20;99928.00;;;;9786220;30;20205;-80
2022/12/23 00:29:00;;;;;;;16.50;4.97;;;;;10.20;99928.00;;;;9810692;30;20205;-80
2022/12/23 00:34:02;;;;;;;13.13;4.90;;;;;10.20;99935.00;;;;9788546;30;20235;-79
2022/12/23 00:44:24;;;;;;;10.97;3.97;;;;;10.20;99944.00;;;;9815922;30;20203;-80
2022/12/23 00:49:41;;;;;;;10.67;3.67;;;;;10.20;99945.00;;;;9788650;30;20266;-79
2022/12/23 00:54:43;;;;;;;11.77;2.97;;;;;10.10;99944.00;;;;9804442;30;20268;-78
2022/12/23 00:59:45;;;;;;;6.60;2.63;;;;;10.10;99947.00;;;;9791930;30;20247;-78
2022/12/23 01:10:27;;;;;;;7.60;2.70;;;;;10.10;99940.00;;;;9731084;30;20313;-79
2022/12/23 01:15:30;;;;;;;14.37;3.27;;;;;10.10;99963.00;;;;9778094;30;20216;-78
2022/12/23 01:20:32;;;;;;;9.50;3.33;;;;;10.10;99949.00;;;;9851204;30;20688;-78
2022/12/23 01:25:33;;;;;;;13.50;3.80;;;;;10.10;99960.00;;;;9821513;30;20267;-78
2022/12/23 01:30:36;;;;;;;9.93;3.80;;;;;10.10;99969.00;;;;9866957;30;20254;-78
2022/12/23 01:35:38;;;;;;;14.83;3.90;;;;;10.10;100007.00;;;;9808802;30;20665;-79
2022/12/23 01:40:44;;;;;;;13.80;4.00;;;;;10.20;100002.00;;;;9808471;30;20236;-79
2022/12/23 01:45:46;;;;;;;15.60;3.70;;;;;10.20;99994.00;;;;9823990;30;20185;-79
2022/12/23 01:51:04;;;;;;;12.60;3.30;;;;;10.20;100012.00;;;;9825878;30;20271;-79
2022/12/23 01:56:24;;;;;;;10.03;3.57;;;;;10.10;100012.00;;;;9814150;30;20931;-79
2022/12/23 02:12:55;;;;;;;7.83;2.73;;;;;10.00;100040.00;;;;9829976;30;20207;-78
2022/12/23 02:18:20;;;;;;;14.97;3.23;;;;;10.00;100045.00;;;;9840886;30;20271;-79
2022/12/23 02:23:41;;;;;;;10.67;2.83;;;;;10.00;100046.00;;;;9810435;30;20657;-79
2022/12/23 02:28:56;;;;;;;11.93;3.00;;;;;10.00;100044.00;;;;9811731;30;20193;-80
2022/12/23 02:34:20;;;;;;;7.10;3.07;;;;;9.90;100039.00;;;;9841952;30;20235;-78
2022/12/23 02:39:39;;;;;;;7.23;2.87;;;;;9.70;100059.00;;;;9826266;30;20213;-78
2022/12/23 02:44:47;;;;;;;8.37;3.20;;;;;9.60;100074.00;;;;9843707;30;20204;-78
2022/12/23 02:49:56;;;;;;;6.63;2.73;;;;;9.50;100080.00;;;;9840711;30;20211;-78
2022/12/23 02:55:12;;;;;;;6.57;2.70;;;;;9.40;100077.00;;;;9844220;30;20214;-78
2022/12/23 03:00:15;;;;;;;7.40;3.23;;;;;9.30;100081.00;;;;9813585;30;20258;-80
2022/12/23 03:05:39;;;;;;;10.53;3.00;;;;;9.30;100074.00;;;;9825157;30;20228;-78
2022/12/23 03:11:01;;;;;;;14.57;3.40;;;;;9.30;100068.00;;;;9828835;30;20255;-80
2022/12/23 03:16:25;;;;;;;10.93;3.17;;;;;9.30;100067.00;;;;9828384;30;20708;-79
2022/12/23 03:21:33;;;;;;;11.50;3.03;;;;;9.30;100048.00;;;;9842652;30;20308;-78
2022/12/23 03:26:48;;;;;;;13.57;3.73;;;;;9.40;100047.00;;;;9827573;30;20276;-78
2022/12/23 03:31:52;;;;;;;5.97;2.93;;;;;9.50;100046.00;;;;9828157;30;20258;-78
2022/12/23 03:36:59;;;;;;;9.10;3.10;;;;;9.50;100037.00;;;;9819937;30;20236;-78
2022/12/23 03:42:08;;;;;;;10.37;3.87;;;;;9.60;100034.00;;;;9791134;30;20337;-78
2022/12/23 03:47:27;;;;;;;6.40;3.37;;;;;9.60;100037.00;;;;9818201;30;20200;-78
2022/12/23 03:52:33;;;;;;;8.57;3.17;;;;;9.60;100051.00;;;;9851619;30;20193;-78
2022/12/23 03:58:01;;;;;;;10.33;3.30;;;;;9.50;100048.00;;;;9841555;30;20269;-78
2022/12/23 04:03:20;;;;;;;10.40;2.77;;;;;9.60;100065.00;;;;9841441;30;20638;-78
2022/12/23 04:08:31;;;;;;;11.93;3.27;;;;;9.60;100076.00;;;;9833488;30;20693;-78
2022/12/23 04:13:33;;;;;;;9.23;3.23;;;;;9.60;100077.00;;;;9805885;30;20209;-79
2022/12/23 04:18:35;;;;;;;9.27;3.03;;;;;9.60;100076.00;;;;9826176;30;20224;-78
2022/12/23 04:23:39;;;;;;;11.73;3.50;;;;;9.60;100089.00;;;;9805395;30;20735;-78
2022/12/23 04:28:41;;;;;;;10.13;3.70;;;;;9.60;100083.00;;;;9775942;30;20618;-78
2022/12/23 04:33:43;;;;;;;9.27;3.87;;;;;9.60;100086.00;;;;9816217;30;20295;-78
2022/12/23 04:38:44;;;;;;;7.37;3.50;;;;;9.60;100093.00;;;;9855446;30;20242;-78
2022/12/23 04:43:46;;;;;;;10.30;3.93;;;;;9.60;100087.00;;;;9810852;30;20215;-79
2022/12/23 04:48:54;;;;;;;8.57;4.13;;;;;9.60;100088.00;;;;9824139;30;20311;-78
2022/12/23 04:53:56;;;;;;;12.83;4.00;;;;;9.60;100075.00;;;;9825465;30;20219;-78
2022/12/23 04:59:01;;;;;;;10.70;4.07;;;;;9.60;100078.00;;;;9825597;30;20270;-79
2022/12/23 05:04:03;;;;;;;11.40;5.70;;;;;9.60;100076.00;;;;9799533;30;20208;-78
2022/12/23 05:09:05;;;;;;;10.07;5.33;;;;;9.60;100079.00;;;;9811836;30;20209;-79
2022/12/23 05:14:08;;;;;;;12.33;6.17;;;;;9.70;100082.00;;;;9827337;30;20335;-78
2022/12/23 05:19:10;;;;;;;16.07;7.10;;;;;9.70;100084.00;;;;9827458;30;20515;-78
2022/12/23 05:24:15;;;;;;;14.37;7.97;;;;;9.70;100082.00;;;;9835228;30;20720;-79
2022/12/23 05:29:17;;;;;;;17.30;6.97;;;;;9.70;100081.00;;;;9840383;30;20208;-78
2022/12/23 05:34:19;;;;;;;12.90;7.00;;;;;9.60;100086.00;;;;9826727;30;20205;-78
2022/12/23 05:39:21;;;;;;;14.00;6.30;;;;;9.60;100076.00;;;;9807481;30;20225;-79
2022/12/23 05:44:22;;;;;;;18.00;7.23;;;;;9.60;100077.00;;;;9842391;30;20240;-78
2022/12/23 05:49:25;;;;;;;14.43;6.13;;;;;9.60;100055.00;;;;9825731;30;20270;-79
2022/12/23 05:54:27;;;;;;;13.03;5.83;;;;;9.60;100037.00;;;;9814284;30;20216;-79
2022/12/23 05:59:29;;;;;;;8.70;5.30;;;;;9.50;100033.00;;;;9828875;30;20222;-79
2022/12/23 06:04:32;;;;;;;13.27;5.43;;;;;9.60;100045.00;;;;9806486;30;20232;-79
2022/12/23 06:09:34;;;;;;;8.17;4.47;;;;;9.60;100034.00;;;;9833176;30;20211;-79
2022/12/23 06:14:36;;;;;;;13.73;4.67;;;;;9.60;100027.00;;;;9834882;30;20200;-78
2022/12/23 06:19:38;;;;;;;6.50;4.37;;;;;9.60;100035.00;;;;9847952;30;20217;-79
2022/12/23 06:24:40;;;;;;;12.03;5.03;;;;;9.60;100049.00;;;;9833292;30;20215;-79
2022/12/23 06:29:41;;;;;;;11.93;5.57;;;;;9.60;100058.00;;;;9847560;30;20553;-78
2022/12/23 06:34:43;;;;;;;14.47;4.87;;;;;9.60;100053.00;;;;9830169;30;20295;-79
2022/12/23 06:39:45;;;;;;;14.97;5.40;;;;;9.60;100054.00;;;;9818901;30;20216;-78
2022/12/23 06:44:47;;;;;;;11.83;4.27;;;;;9.50;100055.00;;;;9845382;30;20262;-78
2022/12/23 06:49:49;;;;;;;9.43;4.03;;;;;9.40;100042.00;;;;9820652;30;20216;-78
2022/12/23 06:54:51;;;;;;;10.33;4.00;;;;;9.30;100051.00;;;;9824802;30;20841;-78
2022/12/23 06:59:53;;;;;;;10.67;4.17;;;;;9.20;100052.00;;;;9826803;30;20234;-78
2022/12/23 07:04:55;;;;;;;9.20;4.47;;;;;9.30;100052.00;;;;9793875;30;20641;-78
2022/12/23 07:09:57;;;;;;;10.93;4.67;;;;;9.30;100061.00;;;;9826490;30;20221;-78
2022/12/23 07:14:59;;;;;;;14.63;4.73;;;;;9.40;100059.00;;;;9809019;30;20209;-78
2022/12/23 07:20:02;;;;;;;17.47;5.10;;;;;9.40;100067.00;;;;9813630;30;20311;-78
2022/12/23 07:25:04;;;;;;;11.60;5.00;;;;;9.50;100057.00;;;;9830194;30;20775;-79
2022/12/23 07:30:06;;;;;;;16.17;5.10;;;;;9.50;100033.00;;;;9824296;30;20687;-78
2022/12/23 07:35:08;;;;;;;15.43;4.70;;;;;9.50;100048.00;;;;9828498;30;20200;-78
2022/12/23 07:40:11;;;;;;;13.00;6.00;;;;;9.50;100048.00;;;;9843051;30;20603;-79
2022/12/23 07:45:13;;;;;;;17.57;7.03;;;;;9.50;100035.00;;;;9827361;30;20230;-78
2022/12/23 07:50:16;;;;;;;18.63;6.83;;;;;9.50;100037.00;;;;9842700;30;20193;-78
2022/12/23 07:55:18;;;;;;;15.27;6.03;;;;;9.50;100055.00;;;;9828572;30;20288;-78
2022/12/23 08:00:20;;;;;;;17.10;6.33;;;;;9.50;100051.00;;;;9828396;30;20212;-78
2022/12/23 08:05:22;;;;;;;16.50;6.50;;;;;9.50;100042.00;;;;9816863;30;20235;-78
2022/12/23 08:10:25;;;;;;;13.77;5.13;;;;;9.50;100038.00;;;;9823514;30;20609;-79
2022/12/23 08:15:27;;;;;;;15.47;6.20;;;;;9.50;100036.00;;;;9793651;30;20244;-79
2022/12/23 08:20:29;;;;;;;16.33;6.00;;;;;9.50;100020.00;;;;9803505;30;20216;-79
2022/12/23 08:25:31;;;;;;;19.70;6.23;;;;;9.50;99999.00;;;;9838609;30;20212;-79
2022/12/23 08:30:33;;;;;;;18.13;5.50;;;;;9.50;100009.00;;;;9827033;30;20203;-78
2022/12/23 08:35:35;;;;;;;12.73;5.20;;;;;9.60;99992.00;;;;9837023;30;20201;-77
2022/12/23 08:40:40;;;;;;;13.67;5.43;;;;;9.60;99989.00;;;;9806363;30;20985;-79
2022/12/23 08:45:42;;;;;;;17.57;5.63;;;;;9.70;99982.00;;;;9815032;30;20205;-78
2022/12/23 08:50:45;;;;;;;12.63;5.70;;;;;9.70;99958.00;;;;9806939;30;20189;-79
2022/12/23 08:55:47;;;;;;;11.83;5.73;;;;;9.70;99944.00;;;;9819458;30;20212;-79
2022/12/23 09:00:49;;;;;;;13.97;5.57;;;;;9.70;99929.00;;;;9801005;30;20247;-79
2022/12/23 09:05:51;;;;;;;15.00;5.27;;;;;9.70;99930.00;;;;9747242;30;1103628;-78
2022/12/23 09:10:53;;;;;;;12.60;6.17;;;;;9.70;99939.00;;;;9803759;30;20732;-78
2022/12/23 09:15:55;;;;;;;18.80;5.60;;;;;9.70;99939.00;;;;9793423;30;20204;-78
2022/12/23 09:20:59;;;;;;;11.00;5.50;;;;;9.70;99939.00;;;;9828411;30;20209;-79
2022/12/23 09:26:03;;;;;;;12.37;4.93;;;;;9.60;99918.00;;;;9844140;30;20254;-78
2022/12/23 09:31:09;;;;;;;11.73;5.33;;;;;9.60;99936.00;;;;9816313;30;20278;-80
2022/12/23 09:36:11;;;;;;;13.03;4.60;;;;;9.50;99930.00;;;;9818642;30;20277;-79
2022/12/23 09:41:47;;;;;;;15.17;5.30;;;;;9.40;99917.00;;;;9814012;30;20239;-80
2022/12/23 09:46:57;;;;;;;9.67;4.47;;;;;9.40;99906.00;;;;9814852;30;20211;-79
2022/12/23 09:52:04;;;;;;;10.87;4.70;;;;;9.40;99886.00;;;;9809264;30;20212;-80
2022/12/23 09:57:21;;;;;;;13.00;5.00;;;;;9.50;99870.00;;;;9807774;30;20204;-80
2022/12/23 10:02:42;;;;;;;11.70;4.77;;;;;9.50;99857.00;;;;9829088;30;20306;-80
2022/12/23 10:07:50;;;;;;;8.63;4.63;;;;;9.50;99848.00;;;;9793730;30;20248;-79
2022/12/23 10:12:53;;;;;;;10.83;5.03;;;;;9.50;99836.00;;;;9821910;30;20204;-79
2022/12/23 10:18:01;;;;;;;10.63;6.17;;;;;9.50;99800.00;;;;9822817;30;20204;-80
2022/12/23 10:23:09;;;;;;;8.10;4.30;;;;;9.50;99788.00;;;;9837741;30;20247;-80
2022/12/23 10:28:11;;;;;;;7.40;4.33;;;;;9.50;99760.00;;;;9839714;30;20231;-80
2022/12/23 10:33:22;;;;;;;10.07;5.53;;;;;9.60;99735.00;;;;9847728;30;20200;-80
2022/12/23 10:38:27;;;;;;;11.77;5.13;;;;;9.50;99733.00;;;;9804409;30;20224;-80
2022/12/23 10:43:47;;;;;;;10.13;6.20;;;;;9.50;99725.00;;;;9820062;30;20262;-82
2022/12/23 10:49:11;;;;;;;16.90;7.60;;;;;9.50;99728.00;;;;9811820;30;20225;-81
2022/12/23 10:54:22;;;;;;;16.90;7.17;;;;;9.70;99698.00;;;;9824460;30;20193;-82
2022/12/23 10:59:32;;;;;;;11.00;5.70;;;;;9.90;99688.00;;;;9804329;30;20335;-79
2022/12/23 11:04:36;;;;;;;12.80;6.43;;;;;10.00;99654.00;;;;9795395;30;20301;-80
2022/12/23 11:09:51;;;;;;;8.97;5.77;;;;;10.00;99643.00;;;;9822284;30;20669;-81
2022/12/23 11:14:55;;;;;;;11.63;7.13;;;;;9.90;99645.00;;;;9808418;30;20237;-80
2022/12/23 11:20:09;;;;;;;8.67;5.63;;;;;9.90;99627.00;;;;9818426;30;20604;-82
2022/12/23 11:25:42;;;;;;;8.37;5.43;;;;;9.90;99589.00;;;;9820901;30;20209;-80
2022/12/23 11:30:54;;;;;;;7.00;5.00;;;;;9.80;99601.00;;;;9796380;30;20204;-81
2022/12/23 11:36:01;;;;;;;9.77;5.27;;;;;9.80;99573.00;;;;9804846;30;20274;-79
2022/12/23 11:41:04;;;;;;;7.47;3.87;;;;;9.90;99547.00;;;;9830291;30;20212;-79
2022/12/23 11:46:24;;;;;;;6.03;4.00;;;;;9.80;99573.00;;;;9804656;30;20201;-80
2022/12/23 11:51:26;;;;;;;5.67;3.37;;;;;9.80;99565.00;;;;9808465;30;20196;-79
2022/12/23 11:56:38;;;;;;;4.47;3.27;;;;;9.90;99524.00;;;;9801454;30;20223;-80
2022/12/23 12:01:46;;;;;;;5.17;3.37;;;;;10.10;99522.00;;;;9820989;30;20209;-79
2022/12/23 12:06:50;;;;;;;3.40;2.63;;;;;10.30;99517.00;;;;9808432;30;20254;-80
2022/12/23 12:12:07;;;;;;;2.70;2.20;;;;;10.40;99489.00;;;;9822995;30;20740;-79
2022/12/23 12:17:18;;;;;;;2.10;1.90;;;;;10.70;99484.00;;;;9796422;30;20677;-79
2022/12/23 12:22:31;;;;;;;3.30;2.17;;;;;11.00;99470.00;;;;9798606;30;20788;-79
2022/12/23 12:27:38;;;;;;;3.60;2.27;;;;;11.70;99453.00;;;;9808524;30;20292;-79
2022/12/23 12:32:49;;;;;;;2.80;2.13;;;;;12.20;99440.00;;;;9834176;30;20216;-78
2022/12/23 12:38:05;;;;;;;5.57;2.23;;;;;12.50;99422.00;;;;9821235;30;20219;-80
2022/12/23 12:43:21;;;;;;;4.63;2.23;;;;;12.90;99409.00;;;;9786240;30;20708;-80
2022/12/23 12:49:05;;;;;;;7.23;2.20;;;;;12.90;99428.00;;;;9849887;30;20261;-80
2022/12/23 12:54:29;;;;;;;2.70;1.90;;;;;13.40;99418.00;;;;9778397;30;20755;-81
2022/12/23 12:59:34;;;;;;;1.80;1.60;;;;;13.20;99433.00;;;;9800312;30;20274;-80
2022/12/23 13:05:38;;;;;;;4.25;1.60;;;;;13.30;99424.00;;;;9812706;30;20673;-81
2022/12/23 13:10:55;;;;;;;1.90;1.50;;;;;13.00;99435.00;;;;9736069;30;20198;-79
2022/12/23 13:16:36;;;;;;;1.70;1.50;;;;;13.00;99443.00;;;;9786990;30;20744;-79
2022/12/23 13:22:00;;;;;;;0.95;0.90;;;;;13.00;99455.00;;;;9821577;30;20768;-79
2022/12/23 13:27:11;;;;;;;1.50;1.07;;;;;13.10;99465.00;;;;9829565;30;20205;-78
2022/12/23 13:32:25;;;;;;;1.67;1.20;;;;;13.40;99453.00;;;;9830790;30;20553;-79
2022/12/23 13:37:49;;;;;;;1.45;1.35;;;;;13.50;99462.00;;;;9818066;30;20326;-80
2022/12/23 13:42:55;;;;;;;1.52;1.30;;;;;13.30;99474.00;;;;9828278;30;20212;-81
2022/12/23 13:48:13;;;;;;;2.83;1.83;;;;;13.30;99461.00;;;;9824441;30;20200;-80
2022/12/23 13:53:41;;;;;;;3.67;1.87;;;;;13.10;99471.00;;;;9838728;30;20251;-80
2022/12/23 13:58:47;;;;;;;2.17;1.20;;;;;13.10;99475.00;;;;9825237;30;20207;-80
2022/12/23 14:03:49;;;;;;;2.22;1.90;;;;;13.40;99476.00;;;;9832768;30;20289;-79
2022/12/23 14:08:52;;;;;;;2.30;1.80;;;;;13.40;99475.00;;;;9806878;30;20324;-81
2022/12/23 14:14:00;;;;;;;1.80;1.70;;;;;13.30;99473.00;;;;9827272;30;20280;-81
2022/12/23 14:19:05;;;;;;;1.80;1.70;;;;;13.30;99486.00;;;;9824660;30;20209;-80
2022/12/23 14:24:35;;;;;;;2.25;1.80;;;;;13.40;99484.00;;;;9837174;30;20215;-81
2022/12/23 14:29:37;;;;;;;3.38;1.35;;;;;13.30;99498.00;;;;9846303;30;20193;-79
2022/12/23 14:35:11;;;;;;;1.77;1.33;;;;;13.20;99502.00;;;;9803165;30;20240;-80
2022/12/23 14:40:38;;;;;;;2.42;1.20;;;;;13.10;99505.00;;;;9832528;30;20212;-80
2022/12/23 14:45:43;;;;;;;2.22;1.08;;;;;13.00;99519.00;;;;9815234;30;20197;-79
2022/12/23 14:50:56;;;;;;;4.30;1.30;;;;;12.80;99531.00;;;;9828390;30;20232;-80
2022/12/23 14:56:13;;;;;;;2.17;1.30;;;;;12.60;99555.00;;;;9829526;30;20284;-79
2022/12/23 15:01:19;;;;;;;5.70;1.45;;;;;12.50;99540.00;;;;9811914;30;20728;-78
2022/12/23 15:06:30;;;;;;;5.85;1.50;;;;;12.40;99553.00;;;;9822461;30;20237;-78
2022/12/23 15:11:34;;;;;;;6.55;1.67;;;;;12.40;99570.00;;;;9794210;30;20317;-80
2022/12/23 15:16:39;;;;;;;10.27;1.80;;;;;12.40;99582.00;;;;9827155;30;20223;-79
2022/12/23 15:21:41;;;;;;;8.53;1.97;;;;;12.40;99592.00;;;;9844628;30;20863;-78
2022/12/23 15:26:51;;;;;;;8.80;2.40;;;;;12.40;99596.00;;;;9817026;30;20287;-78
2022/12/23 15:32:14;;;;;;;13.93;2.57;;;;;12.30;99607.00;;;;9821113;30;20231;-80
2022/12/23 15:37:23;;;;;;;10.02;2.00;;;;;12.30;99628.00;;;;9804622;30;20208;-78
2022/12/23 15:42:30;;;;;;;12.60;2.73;;;;;12.30;99636.00;;;;9814401;30;20228;-78
2022/12/23 15:47:41;;;;;;;24.10;3.47;;;;;12.30;99648.00;;;;9825491;30;20193;-79
2022/12/23 15:52:46;;;;;;;15.10;3.23;;;;;12.20;99651.00;;;;9829298;30;20204;-78
2022/12/23 15:57:50;;;;;;;16.70;3.17;;;;;12.30;99654.00;;;;9819849;30;20274;-78
2022/12/23 16:02:55;;;;;;;17.93;2.97;;;;;12.20;99676.00;;;;9812863;30;20224;-79
2022/12/23 16:08:16;;;;;;;20.55;3.50;;;;;12.20;99682.00;;;;9808085;30;20247;-78
2022/12/23 16:13:27;;;;;;;24.87;3.77;;;;;12.20;99685.00;;;;9792933;30;20185;-78
2022/12/23 16:18:31;;;;;;;17.47;3.43;;;;;12.10;99692.00;;;;9840493;30;20218;-79
2022/12/23 16:23:36;;;;;;;14.30;3.33;;;;;12.10;99687.00;;;;9800863;30;20212;-79
2022/12/23 16:28:41;;;;;;;27.40;4.33;;;;;12.00;99701.00;;;;9829928;30;20291;-78
2022/12/23 16:33:46;;;;;;;22.47;4.90;;;;;11.90;99695.00;;;;9842869;30;20216;-79
2022/12/23 16:38:49;;;;;;;17.27;3.37;;;;;11.70;99703.00;;;;9842239;30;20687;-78
2022/12/23 16:43:51;;;;;;;20.73;3.90;;;;;11.70;99721.00;;;;9836970;30;20298;-78
2022/12/23 16:48:57;;;;;;;22.03;4.03;;;;;11.70;99731.00;;;;9829177;30;20232;-79
2022/12/23 16:54:00;;;;;;;16.47;3.73;;;;;11.80;99735.00;;;;9829190;30;20211;-77
2022/12/23 16:59:02;;;;;;;20.13;4.30;;;;;11.80;99725.00;;;;9816055;30;20317;-79
2022/12/23 17:04:05;;;;;;;21.40;4.27;;;;;11.70;99734.00;;;;9821746;30;20212;-77
2022/12/23 17:09:08;;;;;;;21.13;3.47;;;;;11.70;99752.00;;;;9830161;30;20215;-77
2022/12/23 17:14:17;;;;;;;19.73;4.10;;;;;11.70;99740.00;;;;9829727;30;20196;-78
2022/12/23 17:19:19;;;;;;;18.60;3.83;;;;;11.80;99758.00;;;;9811113;30;20602;-79
2022/12/23 17:24:29;;;;;;;15.73;3.33;;;;;11.80;99758.00;;;;9842723;30;20212;-78
2022/12/23 17:29:31;;;;;;;14.97;3.40;;;;;11.70;99761.00;;;;9817468;30;20573;-78
2022/12/23 17:34:33;;;;;;;20.50;3.97;;;;;11.70;99767.00;;;;9820331;30;20209;-79
2022/12/23 17:39:35;;;;;;;23.33;4.13;;;;;11.70;99773.00;;;;9834427;30;20250;-80
2022/12/23 17:44:37;;;;;;;21.53;3.97;;;;;11.70;99787.00;;;;9834868;30;20688;-80
2022/12/23 17:49:39;;;;;;;18.70;3.70;;;;;11.70;99790.00;;;;9825018;30;20213;-80
2022/12/23 17:54:41;;;;;;;18.50;3.63;;;;;11.70;99797.00;;;;9850725;30;20632;-78
2022/12/23 17:59:47;;;;;;;24.57;4.00;;;;;11.70;99804.00;;;;9850791;30;20314;-79
2022/12/23 18:04:50;;;;;;;21.03;4.97;;;;;11.70;99810.00;;;;9822856;30;20251;-79
2022/12/23 18:09:52;;;;;;;19.80;4.13;;;;;11.70;99820.00;;;;9825521;30;20584;-79
2022/12/23 18:14:55;;;;;;;20.60;4.63;;;;;11.60;99821.00;;;;9836659;30;20210;-79
2022/12/23 18:19:57;;;;;;;22.07;4.33;;;;;11.60;99813.00;;;;9835911;30;20213;-79
2022/12/23 18:24:59;;;;;;;22.23;4.20;;;;;11.60;99829.00;;;;9835353;30;20244;-78
2022/12/23 18:30:01;;;;;;;21.97;4.17;;;;;11.60;99831.00;;;;9843150;30;20209;-78
2022/12/23 18:35:21;;;;;;;22.60;3.70;;;;;11.60;99819.00;;;;9827680;30;20216;-79
2022/12/23 18:40:25;;;;;;;27.23;3.80;;;;;11.50;99818.00;;;;9827474;30;20217;-78
2022/12/23 18:45:40;;;;;;;21.57;4.83;;;;;11.50;99835.00;;;;9836098;30;20196;-79
2022/12/23 18:50:45;;;;;;;20.43;5.00;;;;;11.50;99837.00;;;;9822209;30;20209;-78
2022/12/23 18:55:48;;;;;;;25.77;4.20;;;;;11.40;99850.00;;;;9832863;30;20215;-79
2022/12/23 19:00:51;;;;;;;19.40;4.10;;;;;11.40;99854.00;;;;9812368;30;20223;-79
2022/12/23 19:05:55;;;;;;;24.60;3.63;;;;;11.50;99859.00;;;;9834564;30;20712;-79
2022/12/23 19:11:00;;;;;;;25.00;4.50;;;;;11.40;99866.00;;;;9820480;30;20661;-79
2022/12/23 19:16:02;;;;;;;18.43;4.50;;;;;11.40;99876.00;;;;9817358;30;20214;-79
2022/12/23 19:21:04;;;;;;;19.60;3.83;;;;;11.40;99882.00;;;;9819320;30;20220;-77
2022/12/23 19:26:09;;;;;;;17.73;3.63;;;;;11.40;99904.00;;;;9833270;30;20668;-78
2022/12/23 19:31:12;;;;;;;24.90;5.33;;;;;11.20;99895.00;;;;9828017;30;20220;-78
2022/12/23 19:36:18;;;;;;;20.50;3.43;;;;;11.00;99919.00;;;;9812019;30;20201;-78
2022/12/23 19:41:20;;;;;;;18.77;4.10;;;;;11.00;99932.00;;;;9862084;30;20220;-77
2022/12/23 19:46:22;;;;;;;24.70;4.70;;;;;11.10;99943.00;;;;9823460;30;20240;-78
2022/12/23 19:51:23;;;;;;;23.53;4.93;;;;;11.10;99968.00;;;;9825680;30;20259;-79
2022/12/23 19:56:28;;;;;;;17.43;3.67;;;;;11.20;99978.00;;;;9846636;30;20209;-77
2022/12/23 20:01:29;;;;;;;23.30;4.57;;;;;11.20;99984.00;;;;9831893;30;20227;-77
2022/12/23 20:06:33;;;;;;;26.07;4.53;;;;;11.30;99999.00;;;;9809720;30;20237;-78
2022/12/23 20:11:39;;;;;;;15.70;4.00;;;;;11.30;100010.00;;;;9810410;30;20197;-78
2022/12/23 20:16:42;;;;;;;17.63;3.20;;;;;11.30;100013.00;;;;9816712;30;20216;-80
2022/12/23 20:21:44;;;;;;;20.83;5.30;;;;;11.30;100037.00;;;;9805554;30;20223;-79
2022/12/23 20:26:46;;;;;;;23.73;4.17;;;;;11.30;100043.00;;;;9812059;30;20665;-78
2022/12/23 20:31:48;;;;;;;22.63;3.77;;;;;11.30;100044.00;;;;9829932;30;20203;-79
2022/12/23 20:36:50;;;;;;;15.13;4.03;;;;;11.30;100057.00;;;;9817590;30;20216;-77
2022/12/23 20:41:52;;;;;;;18.80;3.60;;;;;11.20;100064.00;;;;9817681;30;20220;-78
2022/12/23 20:46:54;;;;;;;29.73;5.40;;;;;11.10;100067.00;;;;9842438;30;20200;-78
2022/12/23 20:51:56;;;;;;;20.83;4.67;;;;;11.00;100081.00;;;;9831304;30;20204;-79
2022/12/23 20:56:58;;;;;;;24.00;3.47;;;;;11.00;100097.00;;;;9845612;30;20234;-79
2022/12/23 21:02:00;;;;;;;21.50;4.07;;;;;10.90;100100.00;;;;9826931;30;20217;-78
2022/12/23 21:07:02;;;;;;;19.13;3.80;;;;;10.80;100109.00;;;;9837451;30;20333;-78
2022/12/23 21:12:03;;;;;;;24.57;4.73;;;;;10.80;100099.00;;;;9843258;30;20219;-79
2022/12/23 21:17:05;;;;;;;21.13;4.27;;;;;10.60;100093.00;;;;9808161;30;20213;-79
2022/12/23 21:22:07;;;;;;;20.97;4.07;;;;;10.50;100108.00;;;;9811736;30;20388;-79
2022/12/23 21:27:09;;;;;;;27.47;5.07;;;;;10.40;100118.00;;;;9815290;30;20644;-79
2022/12/23 21:32:11;;;;;;;20.17;3.43;;;;;10.40;100110.00;;;;9822235;30;20296;-77
2022/12/23 21:37:13;;;;;;;21.33;3.43;;;;;10.30;100117.00;;;;9809130;30;20308;-78
2022/12/23 21:42:15;;;;;;;23.77;4.80;;;;;10.30;100125.00;;;;9833124;30;20216;-79
2022/12/23 21:47:17;;;;;;;28.20;4.67;;;;;10.30;100140.00;;;;9846152;30;20208;-78
2022/12/23 21:52:18;;;;;;;20.97;3.87;;;;;10.20;100153.00;;;;9830739;30;20208;-79
2022/12/23 21:57:20;;;;;;;26.60;6.07;;;;;10.20;100163.00;;;;9830445;30;20208;-79
2022/12/23 22:02:22;;;;;;;20.90;4.73;;;;;10.10;100176.00;;;;9808308;30;20248;-78
2022/12/23 22:07:24;;;;;;;28.30;4.50;;;;;10.10;100172.00;;;;9838600;30;20248;-79
2022/12/23 22:12:26;;;;;;;17.53;4.70;;;;;10.10;100183.00;;;;9815864;30;20212;-79
2022/12/23 22:17:28;;;;;;;26.17;4.37;;;;;10.00;100196.00;;;;9844938;30;20659;-79
2022/12/23 22:22:30;;;;;;;24.07;4.93;;;;;10.10;100196.00;;;;9851095;30;20220;-79
2022/12/23 22:27:34;;;;;;;25.43;5.27;;;;;10.20;100192.00;;;;9838913;30;20301;-78
2022/12/23 22:32:35;;;;;;;26.87;5.10;;;;;10.20;100199.00;;;;9816220;30;20272;-79
2022/12/23 22:37:43;;;;;;;25.43;4.53;;;;;10.30;100195.00;;;;9813561;30;20217;-78
2022/12/23 22:42:45;;;;;;;29.27;4.53;;;;;10.40;100213.00;;;;9802216;30;20316;-77
2022/12/23 22:47:46;;;;;;;31.67;5.43;;;;;10.40;100201.00;;;;9801797;30;20247;-78
2022/12/23 22:52:49;;;;;;;20.70;4.77;;;;;10.40;100203.00;;;;9787310;30;20205;-79
2022/12/23 22:57:53;;;;;;;31.67;5.33;;;;;10.40;100207.00;;;;9790747;30;20849;-78
2022/12/23 23:02:55;;;;;;;23.70;3.87;;;;;10.40;100213.00;;;;9816363;30;20233;-79
2022/12/23 23:07:57;;;;;;;22.53;4.70;;;;;10.40;100210.00;;;;9815045;30;20240;-78
2022/12/23 23:12:59;;;;;;;23.13;4.47;;;;;10.40;100218.00;;;;9821519;30;20216;-78
2022/12/23 23:18:01;;;;;;;27.93;4.90;;;;;10.50;100235.00;;;;9799099;30;20755;-78
2022/12/23 23:23:03;;;;;;;20.27;4.03;;;;;10.50;100242.00;;;;9814364;30;20217;-79
2022/12/23 23:28:05;;;;;;;23.23;4.50;;;;;10.50;100252.00;;;;9812468;30;20262;-79
2022/12/23 23:33:09;;;;;;;22.03;3.87;;;;;10.30;100236.00;;;;9843281;30;20270;-79
2022/12/23 23:38:11;;;;;;;26.10;4.33;;;;;10.20;100256.00;;;;9833376;30;20231;-79
2022/12/23 23:43:13;;;;;;;21.80;3.90;;;;;10.20;100272.00;;;;9827909;30;20221;-80
2022/12/23 23:48:16;;;;;;;29.93;4.70;;;;;10.30;100265.00;;;;9813080;30;20244;-79
2022/12/23 23:53:18;;;;;;;24.90;4.40;;;;;10.30;100275.00;;;;9797919;30;20205;-78
2022/12/23 23:58:20;;;;;;;18.17;4.83;;;;;10.20;100264.00;;;;9846766;30;20669;-78
